Time;durP1;ratioP1;P1;durP2;ratioP2;P2;SDS_P1;SDS_P2;PMS_P1;PMS_P2;Temp;Humidity;BMP_temperature;BMP_pressure;BME280_temperature;BME280_humidity;BME280_pressure;Samples;Min_cycle;Max_cycle;Signal;HPM_P1;HPM_P2
2023/06/08 00:00:20;;;;;;;8.15;5.15;;;17.70;99.90;;;18.06;100.00;101040.72;5185901;28;20053;-82
2023/06/08 00:02:55;;;;;;;7.45;5.22;;;17.70;99.90;;;18.06;100.00;101038.06;5195598;28;20053;-81
2023/06/08 00:05:27;;;;;;;8.73;5.55;;;17.70;99.90;;;18.04;100.00;101034.53;5201135;28;20041;-80
2023/06/08 00:08:02;;;;;;;7.68;5.22;;;17.70;99.90;;;18.02;100.00;101033.63;5199715;28;20038;-80
2023/06/08 00:10:34;;;;;;;8.23;5.50;;;17.70;99.90;;;18.00;100.00;101030.13;5206326;28;20046;-82
2023/06/08 00:13:07;;;;;;;6.32;4.93;;;17.60;99.90;;;17.96;100.00;101028.31;5199514;28;20051;-80
2023/06/08 00:15:40;;;;;;;6.93;4.88;;;17.60;99.90;;;17.93;100.00;101028.31;5207189;28;20106;-82
2023/06/08 00:18:12;;;;;;;7.95;5.07;;;17.60;99.90;;;17.89;100.00;101026.50;5192173;28;20056;-84
2023/06/08 00:20:46;;;;;;;6.75;4.82;;;17.60;99.90;;;17.86;100.00;101029.97;5201811;28;20079;-81
2023/06/08 00:23:18;;;;;;;7.25;5.53;;;17.50;99.90;;;17.81;100.00;101022.91;5181645;28;20053;-81
2023/06/08 00:25:50;;;;;;;8.48;5.65;;;17.50;99.90;;;17.78;100.00;101028.13;5207552;28;20049;-84
2023/06/08 00:28:24;;;;;;;6.72;4.57;;;17.50;99.90;;;17.74;100.00;101026.38;5205915;28;20033;-83
2023/06/08 00:30:56;;;;;;;7.03;5.07;;;17.40;99.90;;;17.70;100.00;101027.16;5200997;28;20091;-81
2023/06/08 00:33:28;;;;;;;7.15;4.80;;;17.40;99.90;;;17.66;100.00;101028.00;5180177;28;20065;-81
2023/06/08 00:36:00;;;;;;;6.55;4.88;;;17.40;99.90;;;17.65;100.00;101037.66;5189617;28;20046;-82
2023/06/08 00:38:33;;;;;;;7.13;5.05;;;17.30;99.90;;;17.62;100.00;101027.97;5193710;28;20065;-83
2023/06/08 00:41:07;;;;;;;7.03;5.35;;;17.30;99.90;;;17.60;100.00;101027.09;5204871;28;20100;-82
2023/06/08 00:43:44;;;;;;;6.80;5.03;;;17.30;99.90;;;17.63;100.00;101031.50;5185134;28;20038;-81
2023/06/08 00:46:18;;;;;;;7.72;5.38;;;17.30;99.90;;;17.62;100.00;101032.38;5186418;28;20054;-82
2023/06/08 00:48:52;;;;;;;7.85;5.05;;;17.30;99.90;;;17.60;100.00;101028.81;5187607;28;20101;-80
2023/06/08 00:51:26;;;;;;;6.93;5.07;;;17.30;99.90;;;17.59;100.00;101022.66;5202785;28;20050;-82
2023/06/08 00:53:58;;;;;;;7.03;4.93;;;17.30;99.90;;;17.58;100.00;101015.63;5180082;28;20045;-82
2023/06/08 00:56:32;;;;;;;7.80;4.97;;;17.30;99.90;;;17.55;100.00;101015.59;5194321;28;20049;-84
2023/06/08 00:59:07;;;;;;;7.00;5.32;;;17.20;99.90;;;17.52;100.00;101014.69;5202807;28;20049;-81
2023/06/08 01:01:40;;;;;;;6.93;4.30;;;17.20;99.90;;;17.48;100.00;101008.50;5181122;28;20454;-82
2023/06/08 01:04:14;;;;;;;8.15;5.35;;;17.20;99.90;;;17.46;100.00;101010.22;5210115;28;20049;-76
2023/06/08 01:06:48;;;;;;;8.00;5.45;;;17.20;99.90;;;17.47;100.00;100995.28;5184881;28;20065;-82
2023/06/08 01:09:31;;;;;;;8.95;5.45;;;17.20;99.90;;;17.45;100.00;100997.03;5192446;28;20545;-81
2023/06/08 01:12:17;;;;;;;7.30;5.50;;;17.10;99.90;;;17.43;100.00;101007.56;5211685;28;20527;-80
2023/06/08 01:15:01;;;;;;;8.40;5.75;;;17.10;99.90;;;17.42;100.00;101004.94;5194735;28;20049;-80
2023/06/08 01:17:38;;;;;;;7.53;5.03;;;17.10;99.90;;;17.40;100.00;101002.25;5202533;28;20430;-80
2023/06/08 01:20:29;;;;;;;7.25;5.43;;;17.10;99.90;;;17.39;100.00;101007.50;5197751;28;20038;-81
2023/06/08 01:23:20;;;;;;;8.77;5.60;;;17.10;99.90;;;17.33;100.00;101003.06;5207579;28;20049;-81
2023/06/08 01:25:56;;;;;;;9.20;6.00;;;17.00;99.90;;;17.30;100.00;101005.69;5193871;28;20050;-82
2023/06/08 01:28:31;;;;;;;8.80;5.55;;;17.00;99.90;;;17.24;100.00;101009.13;5185760;28;20060;-81
2023/06/08 01:31:03;;;;;;;7.60;5.65;;;17.00;99.90;;;17.20;100.00;101007.31;5205993;28;20046;-82
2023/06/08 01:33:35;;;;;;;8.55;5.63;;;16.90;99.90;;;17.16;100.00;101007.28;5180076;28;20049;-81
2023/06/08 01:36:15;;;;;;;7.70;5.80;;;16.80;99.90;;;17.14;100.00;101009.00;5191127;28;20107;-81
2023/06/08 01:39:00;;;;;;;9.55;5.95;;;16.80;99.90;;;17.09;100.00;101015.13;5181692;28;20038;-82
2023/06/08 01:41:45;;;;;;;8.45;5.32;;;16.80;99.90;;;17.06;100.00;101012.44;5191583;28;20234;-81
2023/06/08 01:44:21;;;;;;;8.63;5.65;;;16.80;99.90;;;17.00;100.00;101017.63;5201784;28;20125;-79
2023/06/08 01:46:58;;;;;;;8.13;5.22;;;16.70;99.90;;;16.98;100.00;101011.47;5191190;28;20064;-81
2023/06/08 01:49:33;;;;;;;8.82;5.97;;;16.70;99.90;;;16.95;100.00;101006.19;5181198;28;20114;-81
2023/06/08 01:52:06;;;;;;;9.32;5.68;;;16.70;99.90;;;16.92;100.00;101003.47;5180574;28;20448;-83
2023/06/08 01:54:38;;;;;;;7.32;5.28;;;16.70;99.90;;;16.88;100.00;101001.66;5200667;28;20499;-81
2023/06/08 01:57:13;;;;;;;7.65;5.70;;;16.60;99.90;;;16.84;100.00;100991.97;5184527;28;20107;-82
2023/06/08 01:59:46;;;;;;;7.57;5.72;;;16.60;99.90;;;16.79;100.00;100988.41;5171329;28;20064;-83
2023/06/08 02:02:18;;;;;;;7.70;5.05;;;16.50;99.90;;;16.77;100.00;100984.88;5175945;28;20412;-81
2023/06/08 02:04:50;;;;;;;8.23;5.40;;;16.50;99.90;;;16.74;100.00;100983.06;5183072;28;20456;-82
2023/06/08 02:07:22;;;;;;;7.28;5.18;;;16.50;99.90;;;16.75;100.00;100991.84;5200828;28;20121;-82
2023/06/08 02:09:54;;;;;;;7.18;5.03;;;16.50;99.90;;;16.76;100.00;100988.38;5196170;28;20046;-84
2023/06/08 02:12:27;;;;;;;8.23;5.40;;;16.50;99.90;;;16.78;100.00;100989.28;5198305;28;20071;-83
2023/06/08 02:15:00;;;;;;;8.70;6.20;;;16.50;99.90;;;16.79;100.00;100986.66;5196793;28;20042;-82
2023/06/08 02:17:35;;;;;;;7.40;4.93;;;16.50;99.90;;;16.84;100.00;100991.97;5194613;28;20503;-81
2023/06/08 02:20:09;;;;;;;7.18;4.78;;;16.60;99.90;;;16.85;100.00;100988.47;5171929;28;20046;-81
2023/06/08 02:22:41;;;;;;;9.00;6.10;;;16.60;99.90;;;16.87;100.00;100986.75;5201830;28;20040;-80
2023/06/08 02:25:13;;;;;;;8.40;5.45;;;16.60;99.90;;;16.87;100.00;100988.50;5193803;28;20504;-80
2023/06/08 02:27:48;;;;;;;7.30;5.55;;;16.60;99.90;;;16.85;100.00;100982.34;5208584;28;20069;-81
2023/06/08 02:30:20;;;;;;;8.48;5.70;;;16.60;99.90;;;16.79;100.00;100981.38;5209022;28;20069;-81
2023/06/08 02:32:54;;;;;;;8.20;5.38;;;16.50;99.90;;;16.76;100.00;100989.25;5171893;28;20045;-81
2023/06/08 02:35:26;;;;;;;7.45;5.43;;;16.50;99.90;;;16.71;100.00;100990.06;5173223;28;20046;-81
2023/06/08 02:37:58;;;;;;;7.47;5.55;;;16.50;99.90;;;16.64;100.00;100986.44;5202820;28;20383;-82
2023/06/08 02:40:30;;;;;;;8.15;5.88;;;16.40;99.90;;;16.58;100.00;100985.47;5198437;28;20061;-83
2023/06/08 02:43:04;;;;;;;9.52;6.22;;;16.30;99.90;;;16.54;100.00;100987.16;5180529;28;20088;-81
2023/06/08 02:45:37;;;;;;;8.05;5.97;;;16.30;99.90;;;16.52;100.00;100988.91;5178603;28;20037;-82
2023/06/08 02:48:11;;;;;;;8.75;6.13;;;16.30;99.90;;;16.47;100.00;100991.47;5187701;28;20055;-81
2023/06/08 02:50:43;;;;;;;8.02;5.55;;;16.20;99.90;;;16.44;100.00;100991.44;5190207;28;20090;-81
2023/06/08 02:53:16;;;;;;;7.60;5.50;;;16.20;99.90;;;16.42;100.00;101001.03;5184472;28;20046;-81
2023/06/08 02:55:50;;;;;;;7.82;5.45;;;16.20;99.90;;;16.39;100.00;101002.75;5195329;28;20042;-82
2023/06/08 02:58:30;;;;;;;8.02;5.55;;;16.10;99.90;;;16.36;100.00;101002.69;5184507;28;20041;-81
2023/06/08 03:01:04;;;;;;;7.93;5.40;;;16.10;99.90;;;16.33;100.00;101000.91;5179932;28;20041;-81
2023/06/08 03:03:53;;;;;;;7.45;5.20;;;16.10;99.90;;;16.27;100.00;100992.91;5176675;28;20047;-81
2023/06/08 03:06:33;;;;;;;7.18;5.10;;;16.00;99.90;;;16.24;100.00;100992.91;5189577;28;20492;-83
2023/06/08 03:09:05;;;;;;;7.50;5.53;;;16.00;99.90;;;16.21;100.00;100992.84;5186065;28;20045;-82
2023/06/08 03:11:41;;;;;;;7.32;5.07;;;16.00;99.90;;;16.19;100.00;100991.94;5179701;28;20088;-82
2023/06/08 03:14:18;;;;;;;7.43;5.15;;;15.90;99.90;;;16.15;100.00;100988.34;5195591;28;20046;-82
2023/06/08 03:16:50;;;;;;;7.45;5.10;;;15.90;99.90;;;16.16;100.00;100991.88;5191638;28;20508;-81
2023/06/08 03:19:22;;;;;;;7.25;5.28;;;15.90;99.90;;;16.16;100.00;100987.50;5182358;28;20336;-81
2023/06/08 03:21:56;;;;;;;8.25;5.60;;;15.90;99.90;;;16.15;100.00;100983.09;5178995;28;20069;-81
2023/06/08 03:24:31;;;;;;;6.90;5.28;;;15.90;99.90;;;16.14;100.00;100983.97;5173205;28;20053;-81
2023/06/08 03:27:06;;;;;;;7.97;5.47;;;15.90;99.90;;;16.13;100.00;100981.31;5196516;28;20060;-80
2023/06/08 03:29:39;;;;;;;9.25;5.75;;;15.90;99.90;;;16.12;100.00;100982.19;5207045;28;20041;-81
2023/06/08 03:32:13;;;;;;;7.57;5.65;;;15.90;99.90;;;16.11;100.00;100983.94;5177112;28;20049;-81
2023/06/08 03:34:48;;;;;;;8.13;5.28;;;15.80;99.90;;;16.11;100.00;100980.41;5183071;28;20048;-82
2023/06/08 03:37:21;;;;;;;7.60;5.00;;;15.80;99.90;;;16.09;100.00;100972.47;5183762;28;20112;-80
2023/06/08 03:39:54;;;;;;;7.45;4.93;;;15.90;99.90;;;16.09;100.00;100984.75;5172052;28;20038;-82
2023/06/08 03:42:26;;;;;;;7.43;5.13;;;15.80;99.90;;;16.09;100.00;100982.13;5181557;28;20092;-81
2023/06/08 03:45:03;;;;;;;8.63;5.10;;;15.80;99.90;;;16.06;100.00;100977.72;5181997;28;20092;-78
2023/06/08 03:47:35;;;;;;;7.65;5.32;;;15.80;99.90;;;16.05;100.00;100975.06;5180545;28;20062;-81
2023/06/08 03:50:11;;;;;;;7.50;4.97;;;15.80;99.90;;;16.04;100.00;100975.91;5197224;28;20104;-82
2023/06/08 03:52:44;;;;;;;7.30;5.22;;;15.80;99.90;;;16.03;100.00;100975.03;5201228;28;20041;-81
2023/06/08 03:55:16;;;;;;;8.55;5.57;;;15.80;99.90;;;16.04;100.00;100978.53;5177745;28;20038;-81
2023/06/08 03:57:50;;;;;;;8.43;5.82;;;15.80;99.90;;;16.04;100.00;100981.16;5184543;28;20041;-80
2023/06/08 04:00:24;;;;;;;8.40;5.97;;;15.80;99.90;;;16.02;100.00;100984.66;5183520;28;20050;-81
2023/06/08 04:03:01;;;;;;;8.85;5.80;;;15.80;99.90;;;16.01;100.00;100977.63;5184801;28;20061;-82
2023/06/08 04:05:34;;;;;;;8.73;5.45;;;15.80;99.90;;;16.01;100.00;100977.63;5174268;28;20512;-81
2023/06/08 04:08:07;;;;;;;9.00;5.68;;;15.80;99.90;;;16.04;100.00;100981.16;5197180;28;20070;-81
2023/06/08 04:10:39;;;;;;;7.57;5.57;;;15.80;99.90;;;16.08;100.00;100980.34;5190449;28;20132;-82
2023/06/08 04:13:12;;;;;;;7.72;5.47;;;15.80;99.90;;;16.10;100.00;100978.63;5194862;28;20053;-81
2023/06/08 04:15:46;;;;;;;9.77;5.95;;;15.80;99.90;;;16.12;100.00;100976.94;5191224;28;20069;-81
2023/06/08 04:18:18;;;;;;;7.55;5.60;;;15.80;99.90;;;16.15;100.00;100983.09;5183849;28;20060;-81
2023/06/08 04:20:51;;;;;;;7.80;5.32;;;15.90;99.90;;;16.20;100.00;100980.53;5179776;28;20038;-80
2023/06/08 04:23:23;;;;;;;9.02;6.15;;;15.90;99.90;;;16.22;100.00;100984.97;5187066;28;20529;-81
2023/06/08 04:25:56;;;;;;;8.25;5.97;;;16.00;99.90;;;16.25;100.00;100981.50;5188356;28;20095;-83
2023/06/08 04:28:29;;;;;;;8.57;5.90;;;16.00;99.90;;;16.29;100.00;100988.56;5201724;28;20519;-83
2023/06/08 04:31:04;;;;;;;8.32;5.78;;;16.00;99.90;;;16.33;100.00;100993.00;5179713;28;20040;-82
2023/06/08 04:33:37;;;;;;;9.00;5.75;;;16.10;99.90;;;16.36;100.00;100987.78;5191237;28;20050;-81
2023/06/08 04:36:12;;;;;;;9.77;6.35;;;16.10;99.90;;;16.40;100.00;100991.34;5189469;28;20046;-81
2023/06/08 04:38:45;;;;;;;8.23;5.85;;;16.10;99.90;;;16.42;100.00;100987.00;5199433;28;20145;-82
2023/06/08 04:41:25;;;;;;;8.27;5.72;;;16.20;99.90;;;16.45;100.00;100987.94;5190516;28;20049;-81
2023/06/08 04:44:01;;;;;;;9.45;6.20;;;16.20;99.90;;;16.50;100.00;100986.25;5199781;28;20050;-81
2023/06/08 04:46:37;;;;;;;8.60;6.15;;;16.30;99.90;;;16.59;100.00;100981.97;5194875;28;20049;-81
2023/06/08 04:49:10;;;;;;;9.52;7.13;;;16.30;99.90;;;16.73;100.00;100988.31;5183002;28;20065;-81
2023/06/08 04:51:46;;;;;;;12.13;8.75;;;16.40;99.90;;;16.97;100.00;100988.63;5204365;23;20478;-85
2023/06/08 04:54:21;;;;;;;13.32;8.95;;;16.60;99.90;;;17.25;100.00;100983.66;5183895;28;20058;-82
2023/06/08 04:56:58;;;;;;;;;;;16.90;99.90;;;17.52;100.00;100985.69;5210833;28;20041;-84
2023/06/08 04:59:31;;;;;;;12.68;8.38;;;17.10;99.90;;;17.77;100.00;100978.91;5191939;28;19994;-83
2023/06/08 05:02:05;;;;;;;12.35;8.45;;;17.40;99.90;;;18.00;100.00;100987.91;5176381;28;20046;-82
2023/06/08 05:04:37;;;;;;;12.25;8.40;;;17.60;99.90;;;18.15;100.00;100992.41;5170480;28;20046;-82
2023/06/08 05:07:10;;;;;;;12.25;8.25;;;17.70;99.90;;;18.32;100.00;100984.59;5178537;28;20077;-83
2023/06/08 05:09:42;;;;;;;11.98;8.50;;;17.90;99.90;;;18.49;100.00;100993.50;5184716;28;20052;-82
2023/06/08 05:12:14;;;;;;;12.90;8.32;;;18.10;99.90;;;18.66;100.00;100991.88;5192839;28;20140;-82
2023/06/08 05:14:46;;;;;;;10.30;7.72;;;18.30;99.90;;;18.80;100.00;100998.97;5176967;28;20084;-83
2023/06/08 05:17:21;;;;;;;12.60;8.45;;;18.40;99.90;;;18.92;100.00;100994.63;5202572;28;20049;-83
2023/06/08 05:19:53;;;;;;;12.65;8.02;;;18.50;99.90;;;19.00;100.00;100997.28;5184174;28;20380;-83
2023/06/08 05:22:25;;;;;;;11.98;7.80;;;18.60;99.90;;;19.04;100.00;100988.50;5183802;28;20053;-83
2023/06/08 05:24:57;;;;;;;12.23;8.43;;;18.60;99.90;;;19.18;100.00;100988.53;5172672;28;20052;-82
2023/06/08 05:27:30;;;;;;;10.75;7.93;;;18.70;99.90;;;19.28;100.00;100989.44;5172705;28;20050;-86
2023/06/08 05:30:03;;;;;;;12.15;8.20;;;18.80;99.90;;;19.39;100.00;100995.63;5185577;28;20499;-88
2023/06/08 05:32:36;;;;;;;13.32;8.10;;;18.90;99.90;;;19.50;100.00;100994.78;5179669;28;20053;-88
2023/06/08 05:35:09;;;;;;;12.65;8.07;;;19.00;99.90;;;19.62;100.00;100993.91;5171474;28;20053;-87
2023/06/08 05:37:41;;;;;;;12.85;8.88;;;19.10;99.90;;;19.74;100.00;100993.03;5172926;28;20042;-87
2023/06/08 05:40:14;;;;;;;11.18;7.82;;;19.20;99.90;;;19.83;100.00;100992.19;5179303;28;20522;-87
2023/06/08 05:42:46;;;;;;;11.13;8.30;;;19.30;99.90;;;19.95;100.00;100986.88;5177545;28;20526;-88
2023/06/08 05:45:18;;;;;;;12.82;8.02;;;19.40;99.90;;;20.10;100.00;100994.81;5178293;28;20090;-87
2023/06/08 05:47:51;;;;;;;12.23;8.40;;;19.50;99.90;;;20.21;100.00;100990.41;5204700;28;20090;-86
2023/06/08 05:50:23;;;;;;;12.85;9.02;;;19.60;99.90;;;20.27;100.00;100998.28;5171684;28;20052;-87
2023/06/08 05:52:55;;;;;;;11.70;8.65;;;19.70;99.90;;;20.31;100.00;100993.91;5168277;28;20057;-87
2023/06/08 05:55:28;;;;;;;12.50;8.45;;;19.80;99.90;;;20.33;100.00;100990.34;5182266;28;20050;-91
2023/06/08 05:58:01;;;;;;;12.73;9.75;;;19.80;99.90;;;20.50;100.00;100981.53;5173496;28;20048;-90
2023/06/08 06:00:33;;;;;;;11.63;8.57;;;19.90;99.90;;;20.67;100.00;100985.03;5173403;28;20037;-92
2023/06/08 06:03:07;;;;;;;14.65;9.38;;;20.10;99.90;;;20.86;100.00;100986.72;5192374;28;20403;-90
2023/06/08 06:05:39;;;;;;;11.35;8.38;;;20.20;99.90;;;21.04;100.00;100983.06;5176682;28;20048;-87
2023/06/08 06:08:11;;;;;;;12.48;8.50;;;20.40;99.90;;;21.14;100.00;100986.56;5200949;28;20503;-86
2023/06/08 06:10:43;;;;;;;10.52;7.63;;;20.50;99.90;;;21.25;100.00;100984.72;5191612;28;20053;-86
2023/06/08 06:13:15;;;;;;;10.98;7.90;;;20.60;99.90;;;21.34;100.00;100979.41;5177576;28;20057;-85
2023/06/08 06:15:47;;;;;;;11.32;7.20;;;20.70;99.90;;;21.36;100.00;100988.22;5189204;28;20049;-85
2023/06/08 06:18:21;;;;;;;12.27;7.55;;;20.80;99.90;;;21.34;100.00;100984.69;5172431;28;20049;-86
2023/06/08 06:20:55;;;;;;;11.52;7.60;;;20.70;99.90;;;21.36;100.00;100982.91;5177748;28;20045;-85
2023/06/08 06:23:27;;;;;;;11.40;7.55;;;20.80;99.90;;;21.40;100.00;100994.41;5181386;28;20419;-85
2023/06/08 06:26:00;;;;;;;11.15;7.95;;;20.70;99.90;;;21.53;100.00;100998.72;5174132;28;20041;-88
2023/06/08 06:28:32;;;;;;;12.85;7.43;;;20.90;99.90;;;21.62;100.00;100990.69;5171121;28;20046;-86
2023/06/08 06:31:04;;;;;;;12.38;7.38;;;21.00;99.90;;;21.69;100.00;100988.88;5167916;28;20519;-85
2023/06/08 06:33:38;;;;;;;10.30;7.30;;;21.10;99.90;;;21.84;100.00;100983.47;5175032;28;20065;-85
2023/06/08 06:36:10;;;;;;;11.95;7.45;;;21.10;99.90;;;22.05;100.00;100994.78;5170304;28;20046;-86
2023/06/08 06:38:42;;;;;;;11.20;8.00;;;21.40;99.90;;;22.26;100.00;100986.63;5189732;28;20037;-85
2023/06/08 06:41:14;;;;;;;10.90;7.32;;;21.50;99.90;;;22.34;100.00;100991.84;5178214;28;20049;-84
2023/06/08 06:43:46;;;;;;;12.07;7.95;;;21.60;99.90;;;22.35;100.00;100998.91;5174984;28;20049;-84
2023/06/08 06:46:21;;;;;;;10.30;6.57;;;21.70;99.90;;;22.41;100.00;101004.16;5171312;28;20042;-84
2023/06/08 06:48:55;;;;;;;11.68;7.35;;;21.70;99.90;;;22.55;100.00;100994.25;5199501;28;20051;-85
2023/06/08 06:51:27;;;;;;;10.13;6.43;;;21.80;99.90;;;22.80;100.00;101010.81;5174432;28;20127;-84
2023/06/08 06:53:59;;;;;;;9.85;6.43;;;22.00;99.90;;;23.04;99.87;101003.47;5175051;28;20141;-83
2023/06/08 06:56:32;;;;;;;10.18;6.50;;;22.20;99.90;;;23.21;97.08;101004.09;5180281;28;20114;-82
2023/06/08 06:59:05;;;;;;;7.70;5.70;;;22.40;99.90;;;23.34;95.88;101005.69;5172641;28;20060;-81
2023/06/08 07:01:37;;;;;;;9.13;6.47;;;22.50;99.90;;;23.44;94.77;100996.69;5172403;28;20108;-81
2023/06/08 07:04:14;;;;;;;10.05;5.85;;;22.60;99.90;;;23.61;94.30;101000.88;5175561;28;20046;-83
2023/06/08 07:06:47;;;;;;;8.13;5.80;;;22.80;99.90;;;23.82;93.78;100997.91;5180773;28;20059;-80
2023/06/08 07:09:21;;;;;;;8.52;5.43;;;23.00;99.90;;;24.04;92.85;101009.06;5171235;28;20058;-81
2023/06/08 07:11:53;;;;;;;7.90;4.80;;;23.20;99.90;;;24.22;90.18;101002.53;5178380;28;20057;-80
2023/06/08 07:14:25;;;;;;;7.35;4.70;;;23.30;99.90;;;24.28;87.93;100999.75;5195694;28;20034;-83
2023/06/08 07:16:57;;;;;;;6.43;4.07;;;23.40;99.30;;;24.31;87.08;101000.56;5195083;28;20057;-81
2023/06/08 07:19:33;;;;;;;6.20;4.15;;;23.50;98.90;;;24.37;85.80;101002.28;5212512;28;20038;-80
2023/06/08 07:22:06;;;;;;;11.68;4.30;;;23.50;98.20;;;24.46;86.22;100994.13;5178234;28;20033;-82
2023/06/08 07:24:38;;;;;;;6.22;4.28;;;23.60;98.30;;;24.51;85.45;101002.00;5192200;28;20050;-80
2023/06/08 07:27:10;;;;;;;6.90;3.85;;;23.70;97.80;;;24.59;84.45;100995.63;5196603;28;20053;-81
2023/06/08 07:29:42;;;;;;;5.15;3.83;;;23.70;97.40;;;24.69;84.50;100992.78;5191509;28;20075;-81
2023/06/08 07:32:14;;;;;;;6.47;4.00;;;23.80;97.30;;;24.78;85.36;100995.28;5175983;28;20041;-80
2023/06/08 07:34:48;;;;;;;5.60;3.90;;;23.90;97.40;;;24.86;84.42;101003.97;5186896;28;20050;-78
2023/06/08 07:37:20;;;;;;;5.95;3.85;;;24.00;97.10;;;24.94;84.65;100999.38;5164206;28;20112;-80
2023/06/08 07:39:52;;;;;;;5.72;3.92;;;24.00;97.10;;;25.06;83.76;101000.94;5169913;28;20100;-77
2023/06/08 07:42:24;;;;;;;6.13;4.32;;;24.10;96.70;;;25.11;82.95;100996.38;5168961;28;20041;-79
2023/06/08 07:44:56;;;;;;;4.32;3.47;;;24.10;96.10;;;25.17;82.97;101004.25;5179148;28;20462;-77
2023/06/08 07:47:28;;;;;;;6.00;4.32;;;24.20;96.10;;;25.33;82.78;101007.44;5190658;28;20424;-79
2023/06/08 07:50:01;;;;;;;5.32;3.90;;;24.30;95.90;;;25.47;81.93;100999.97;5171693;28;20057;-81
2023/06/08 07:52:34;;;;;;;5.78;3.85;;;24.40;95.60;;;25.61;80.93;101003.19;5173818;28;20042;-79
2023/06/08 07:55:07;;;;;;;6.10;3.95;;;24.50;95.10;;;25.74;80.34;100998.47;5173304;28;20056;-78
2023/06/08 07:57:40;;;;;;;5.88;4.60;;;24.60;94.80;;;25.83;80.67;101002.72;5203904;28;20041;-82
2023/06/08 08:00:15;;;;;;;5.30;4.03;;;24.70;94.80;;;26.04;79.67;100996.84;5179406;28;20056;-78
2023/06/08 08:02:48;;;;;;;3.92;3.20;;;24.90;94.40;;;26.32;80.31;100990.75;5170951;28;20050;-79
2023/06/08 08:05:21;;;;;;;5.70;3.83;;;25.10;94.70;;;26.66;79.33;100991.59;5192542;28;20046;-80
2023/06/08 08:07:53;;;;;;;5.28;3.85;;;25.30;94.40;;;27.08;78.64;100991.28;5174032;28;20045;-79
2023/06/08 08:10:25;;;;;;;3.63;3.13;;;25.50;94.10;;;27.47;77.14;100991.84;5175518;28;20054;-77
2023/06/08 08:12:57;;;;;;;4.30;3.58;;;25.80;93.70;;;27.90;76.10;100978.88;5191935;28;20042;-77
2023/06/08 08:15:30;;;;;;;5.43;4.05;;;26.10;93.20;;;28.35;74.50;100981.78;5184953;28;20057;-79
2023/06/08 08:18:03;;;;;;;4.20;3.53;;;26.30;92.90;;;28.81;72.78;100983.63;5196097;28;20583;-81
2023/06/08 08:20:36;;;;;;;4.50;3.53;;;26.60;92.00;;;29.35;71.74;100982.47;5201085;28;20043;-82
2023/06/08 08:23:08;;;;;;;4.00;3.38;;;26.90;91.50;;;29.88;71.29;100987.47;5177997;28;20460;-79
2023/06/08 08:25:40;;;;;;;4.60;3.50;;;27.10;91.50;;;30.39;68.81;100988.88;5191991;28;20072;-80
2023/06/08 08:28:14;;;;;;;4.47;3.42;;;27.50;90.60;;;30.87;66.22;100982.22;5187955;28;20056;-80
2023/06/08 08:30:46;;;;;;;4.43;3.67;;;27.80;88.30;;;31.39;64.89;100981.59;5189012;28;20044;-80
2023/06/08 08:33:18;;;;;;;5.55;3.08;;;28.10;86.70;;;31.82;62.40;100977.63;5207959;28;20449;-79
2023/06/08 08:35:51;;;;;;;3.72;3.20;;;28.40;83.50;;;32.78;60.81;100977.09;5190226;28;20068;-79
2023/06/08 08:38:23;;;;;;;5.47;3.33;;;28.90;83.00;;;33.64;58.00;100978.53;5184890;28;20065;-81
2023/06/08 08:41:03;;;;;;;4.13;3.15;;;29.50;80.00;;;34.51;55.83;100973.34;5184653;28;20068;-82
2023/06/08 08:43:45;;;;;;;4.03;3.00;;;30.30;77.50;;;35.29;54.66;100965.66;5201291;28;20050;-79
2023/06/08 08:46:18;;;;;;;4.60;2.75;;;31.00;75.30;;;36.09;52.93;100969.31;5182169;28;20423;-80
2023/06/08 08:48:53;;;;;;;4.25;3.10;;;31.80;73.10;;;36.63;52.00;100971.84;5176500;28;20068;-80
2023/06/08 08:51:28;;;;;;;4.22;2.90;;;32.40;70.90;;;37.16;51.17;100967.09;5191664;28;20062;-79
2023/06/08 08:54:02;;;;;;;3.22;2.90;;;32.90;69.10;;;37.14;49.76;100969.06;5199683;28;20038;-80
2023/06/08 08:56:36;;;;;;;5.40;3.38;;;33.10;66.30;;;37.30;49.96;100969.69;5200366;28;20117;-77
2023/06/08 08:59:09;;;;;;;6.55;3.63;;;33.40;66.00;;;37.31;49.57;100960.53;5168915;28;20066;-81
2023/06/08 09:01:41;;;;;;;9.27;4.50;;;33.40;65.10;;;37.62;49.00;100955.50;5173369;28;20050;-79
2023/06/08 09:04:13;;;;;;;7.20;4.05;;;33.50;64.60;;;37.71;48.79;100955.69;5201555;28;20041;-78
2023/06/08 09:06:49;;;;;;;4.90;3.08;;;33.60;63.80;;;37.75;48.51;100956.28;5190629;28;20046;-83
2023/06/08 09:09:21;;;;;;;4.97;3.00;;;33.60;63.40;;;37.74;48.49;100949.13;5181070;28;20459;-84
2023/06/08 09:11:58;;;;;;;5.13;2.88;;;33.60;63.60;;;37.78;48.74;100947.91;5201337;28;20412;-84
2023/06/08 09:14:30;;;;;;;4.68;3.03;;;33.70;63.30;;;37.75;48.15;100950.84;5193363;28;20049;-85
2023/06/08 09:17:06;;;;;;;4.75;3.33;;;33.70;62.40;;;37.36;47.34;100949.31;5181433;28;20497;-82
2023/06/08 09:19:52;;;;;;;3.45;3.10;;;33.60;60.60;;;36.90;48.44;100942.69;5179604;28;20054;-82
2023/06/08 09:22:30;;;;;;;3.35;2.83;;;33.40;61.50;;;36.61;49.58;100947.53;5177839;28;20049;-82
2023/06/08 09:25:03;;;;;;;3.47;2.85;;;33.40;62.20;;;35.91;50.02;100947.03;5200860;28;20025;-83
2023/06/08 09:27:37;;;;;;;4.05;3.40;;;33.00;61.60;;;35.32;50.82;100941.91;5190672;28;20060;-81
2023/06/08 09:30:23;;;;;;;4.90;3.30;;;32.80;62.10;;;34.85;51.23;100939.56;5178552;28;20049;-81
2023/06/08 09:32:56;;;;;;;5.05;3.40;;;32.60;62.30;;;34.41;53.57;100934.25;5173437;28;20570;-85
2023/06/08 09:35:28;;;;;;;4.30;3.22;;;32.40;63.50;;;33.87;54.61;100933.94;5171163;28;20103;-84
2023/06/08 09:38:18;;;;;;;4.45;3.60;;;32.20;64.20;;;33.07;55.10;100933.19;5192222;28;20068;-83
2023/06/08 09:40:51;;;;;;;4.00;3.33;;;31.70;64.20;;;32.30;55.81;100914.03;5184408;28;20077;-84
2023/06/08 09:43:34;;;;;;;4.18;3.50;;;31.20;64.30;;;31.85;57.63;100928.97;5190392;28;20061;-84
2023/06/08 09:46:06;;;;;;;5.40;3.90;;;30.80;65.60;;;31.20;58.30;100914.25;5185909;28;20542;-80
2023/06/08 09:48:40;;;;;;;4.43;3.65;;;30.30;65.70;;;30.94;59.95;100911.00;5213105;28;20064;-85
2023/06/08 09:51:13;;;;;;;4.68;3.58;;;30.00;67.40;;;30.93;61.54;100914.66;5195242;28;20042;-82
2023/06/08 09:53:47;;;;;;;4.35;3.67;;;29.80;68.90;;;30.88;61.18;100922.06;5188607;28;20083;-82
2023/06/08 09:56:23;;;;;;;4.63;3.38;;;29.80;68.90;;;30.69;61.65;100916.66;5186861;28;20397;-84
2023/06/08 09:58:58;;;;;;;5.45;3.90;;;29.60;69.30;;;30.52;62.05;100911.19;5176486;28;20034;-81
2023/06/08 10:01:38;;;;;;;6.32;3.72;;;29.50;69.70;;;30.40;63.29;100915.31;5169349;28;20045;-81
2023/06/08 10:04:23;;;;;;;5.38;3.83;;;29.30;70.50;;;30.10;62.86;100911.31;5184469;28;20115;-81
2023/06/08 10:06:58;;;;;;;5.22;3.63;;;29.10;70.40;;;29.84;63.41;100913.28;5173570;28;20076;-82
2023/06/08 10:09:37;;;;;;;4.63;3.45;;;28.80;70.60;;;29.67;64.27;100902.41;5192771;28;20145;-81
2023/06/08 10:12:11;;;;;;;4.78;3.60;;;28.60;71.60;;;29.40;65.12;100904.41;5160121;28;20438;-78
2023/06/08 10:14:43;;;;;;;5.03;3.60;;;28.40;71.90;;;29.17;65.86;100900.00;5169623;28;20049;-79
2023/06/08 10:17:16;;;;;;;5.00;3.88;;;28.20;72.50;;;29.06;67.01;100897.72;5194446;28;20121;-83
2023/06/08 10:19:49;;;;;;;5.55;3.83;;;28.10;73.60;;;29.16;67.43;100898.25;5185266;28;20480;-80
2023/06/08 10:22:22;;;;;;;5.10;3.83;;;28.10;74.20;;;29.32;66.50;100902.03;5168778;28;20057;-80
2023/06/08 10:24:56;;;;;;;7.82;4.00;;;28.20;74.00;;;29.35;64.49;100906.41;5171338;28;20085;-80
2023/06/08 10:27:32;;;;;;;6.38;4.30;;;28.30;72.30;;;29.24;63.36;100898.78;5174303;28;20121;-80
2023/06/08 10:30:07;;;;;;;5.00;3.92;;;28.20;70.90;;;29.26;64.03;100894.22;5176951;28;20576;-81
2023/06/08 10:32:42;;;;;;;4.40;3.65;;;28.30;71.50;;;29.39;64.21;100884.72;5170899;28;20060;-84
2023/06/08 10:35:14;;;;;;;5.15;4.18;;;28.40;71.90;;;29.51;63.96;100887.84;5161569;28;20045;-78